YPKG/KGI METAR and TAF weather

Enter ICAO airport designator
Station Type Date Time Source
YPKG METAR 2020/06/06 02:30 UTC NOAA

YPKG 060230Z AUTO 06008KT 9999 // NCD 19/03 Q1027 RF00.0/000.0 PRESENT WEATHER SENSOR US


Station Type Date Time Source
YPKG Decoded METAR 2020/06/06 02:30 UTC NOAA

Kalgoorlie Boulder Amo, Australia (YPKG) 30-47S 121-27E 370M
Jun 05, 2020 - 10:30 PM EDT / 2020.06.06 0230 UTC
Wind: from the ENE (060 degrees) at 9 MPH (8 KT):0
Visibility: greater than 7 mile(s):0
Temperature: 66 F (19 C)
Dew Point: 37 F (3 C)
Relative Humidity: 34%
Pressure (altimeter): 30.33 in. Hg (1027 hPa)
ob: YPKG 060230Z AUTO 06008KT 9999 // NCD 19/03 Q1027 RF00.0/000.0 PRESENT WEATHER SENSOR US
cycle: 2

Station Type Date Time Source
YPKG TAF 2020/06/05 18:00 UTC NOAA

TAF YPKG 051628Z 0518/0618 06008KT CAVOK

Example: see airport list